createdAt,value
2022-12-12T00:00:17.906Z,-4.40
2022-12-12T00:02:50.443Z,-4.40
2022-12-12T00:05:22.588Z,-4.40
2022-12-12T00:07:55.229Z,-4.40
2022-12-12T00:10:27.225Z,-4.50
2022-12-12T00:12:59.820Z,-4.50
2022-12-12T00:15:31.812Z,-4.30
2022-12-12T00:18:04.271Z,-4.50
2022-12-12T00:23:09.049Z,-4.60
2022-12-12T00:25:40.982Z,-4.50
2022-12-12T00:28:13.331Z,-4.50
2022-12-12T00:30:45.302Z,-4.60
2022-12-12T00:33:17.790Z,-4.50
2022-12-12T00:35:54.997Z,-4.50
2022-12-12T00:38:27.334Z,-4.60
2022-12-12T00:41:01.050Z,-4.60
2022-12-12T00:43:33.839Z,-4.60
2022-12-12T00:46:06.021Z,-4.70
2022-12-12T00:48:38.409Z,-4.80
2022-12-12T00:51:13.885Z,-4.80
2022-12-12T00:53:48.526Z,-4.80
2022-12-12T00:56:22.436Z,-4.90
2022-12-12T00:58:54.848Z,-5.10
2022-12-12T01:01:29.777Z,-4.90
2022-12-12T01:04:02.375Z,-5.00
2022-12-12T01:06:34.364Z,-5.00
2022-12-12T01:09:06.855Z,-5.00
2022-12-12T01:11:38.782Z,-5.10
2022-12-12T01:14:12.502Z,-5.20
2022-12-12T01:16:44.495Z,-5.20
2022-12-12T01:19:16.857Z,-5.20
2022-12-12T01:21:48.769Z,-5.20
2022-12-12T01:24:21.115Z,-5.20
2022-12-12T01:26:52.997Z,-5.30
2022-12-12T01:29:25.450Z,-5.20
2022-12-12T01:31:57.376Z,-5.30
2022-12-12T01:34:29.787Z,-5.30
2022-12-12T01:37:01.731Z,-5.20
2022-12-12T01:39:34.980Z,-5.30
2022-12-12T01:42:15.394Z,-5.30
2022-12-12T01:44:54.054Z,-5.10
2022-12-12T01:47:26.684Z,-5.20
2022-12-12T01:50:09.011Z,-5.30
2022-12-12T01:52:47.006Z,-5.30
2022-12-12T01:55:23.317Z,-5.30
2022-12-12T01:57:55.454Z,-5.30
2022-12-12T02:00:27.997Z,-5.50
2022-12-12T02:02:59.986Z,-5.40
2022-12-12T02:05:49.388Z,-5.40
2022-12-12T02:08:23.314Z,-5.50
2022-12-12T02:10:55.989Z,-5.50
2022-12-12T02:13:31.627Z,-5.50
2022-12-12T02:16:12.294Z,-5.60
2022-12-12T02:19:13.833Z,-5.60
2022-12-12T02:22:19.278Z,-5.60
2022-12-12T02:25:34.521Z,-5.50
2022-12-12T02:29:08.149Z,-5.30
2022-12-12T02:32:16.199Z,-5.20
2022-12-12T02:35:12.628Z,-5.20
2022-12-12T02:38:05.860Z,-5.20
2022-12-12T02:41:01.585Z,-5.10
2022-12-12T02:44:13.013Z,-5.10
2022-12-12T02:47:17.668Z,-5.10
2022-12-12T02:50:07.584Z,-5.10
2022-12-12T02:52:42.991Z,-5.00
2022-12-12T02:55:16.934Z,-5.00
2022-12-12T02:57:50.954Z,-5.10
2022-12-12T03:00:22.978Z,-5.00
2022-12-12T03:03:42.774Z,-5.10
2022-12-12T03:07:07.998Z,-5.00
2022-12-12T03:10:24.875Z,-5.30
2022-12-12T03:13:36.802Z,-5.20
2022-12-12T03:16:39.007Z,-5.00
2022-12-12T03:19:20.834Z,-5.00
2022-12-12T03:22:07.263Z,-4.80
2022-12-12T03:24:58.615Z,-5.00
2022-12-12T03:27:37.342Z,-5.20
2022-12-12T03:30:17.164Z,-5.20
2022-12-12T03:33:04.213Z,-5.20
2022-12-12T03:35:44.878Z,-5.20
2022-12-12T03:38:27.193Z,-5.20
2022-12-12T03:41:04.975Z,-5.10
2022-12-12T03:43:48.721Z,-5.10
2022-12-12T03:46:40.944Z,-5.20
2022-12-12T03:49:28.457Z,-5.20
2022-12-12T03:52:15.740Z,-5.30
2022-12-12T03:55:12.745Z,-5.30
2022-12-12T03:58:00.812Z,-5.30
2022-12-12T04:00:37.651Z,-5.20
2022-12-12T04:03:36.068Z,-5.00
2022-12-12T04:06:28.680Z,-5.00
2022-12-12T04:09:30.600Z,-5.00
2022-12-12T04:12:48.773Z,-4.80
2022-12-12T04:15:47.221Z,-4.90
2022-12-12T04:18:53.615Z,-4.90
2022-12-12T04:21:56.472Z,-4.80
2022-12-12T04:24:49.339Z,-4.90
2022-12-12T04:27:44.922Z,-4.80
2022-12-12T04:30:17.459Z,-4.90
2022-12-12T04:33:11.282Z,-4.90
2022-12-12T04:35:48.997Z,-4.80
2022-12-12T04:38:24.523Z,-4.70
2022-12-12T04:40:59.002Z,-4.70
2022-12-12T04:43:37.774Z,-4.70
2022-12-12T04:46:19.093Z,-4.70
2022-12-12T04:48:56.426Z,-4.70
2022-12-12T04:51:35.449Z,-4.90
2022-12-12T04:54:16.481Z,-4.90
2022-12-12T04:56:57.283Z,-4.70
2022-12-12T04:59:29.898Z,-4.60
2022-12-12T05:02:30.652Z,-4.40
2022-12-12T05:05:19.082Z,-4.50
2022-12-12T05:08:21.633Z,-4.50
2022-12-12T05:10:57.989Z,-4.70
2022-12-12T05:13:34.727Z,-4.70
2022-12-12T05:16:32.460Z,-4.80
2022-12-12T05:19:05.620Z,-4.80
2022-12-12T05:21:37.498Z,-4.70
2022-12-12T05:24:10.464Z,-4.70
2022-12-12T05:26:42.814Z,-4.90
2022-12-12T05:29:14.724Z,-4.40
2022-12-12T05:31:47.487Z,-4.50
2022-12-12T05:34:21.421Z,-4.60
2022-12-12T05:36:57.451Z,-4.70
2022-12-12T05:39:29.339Z,-4.70
2022-12-12T05:42:02.418Z,-4.80
2022-12-12T05:44:34.481Z,-4.80
2022-12-12T05:47:07.612Z,-4.90
2022-12-12T05:49:40.055Z,-4.90
2022-12-12T05:52:13.378Z,-4.90
2022-12-12T05:54:54.286Z,-5.00
2022-12-12T05:57:31.220Z,-5.00
2022-12-12T06:00:05.514Z,-5.00
2022-12-12T06:02:39.514Z,-5.20
2022-12-12T06:05:11.909Z,-5.10
2022-12-12T06:07:44.845Z,-5.20
2022-12-12T06:10:16.782Z,-5.30
2022-12-12T06:12:49.184Z,-5.30
2022-12-12T06:15:21.165Z,-5.30
2022-12-12T06:17:53.728Z,-5.00
2022-12-12T06:20:25.974Z,-4.90
2022-12-12T06:22:59.238Z,-5.00
2022-12-12T06:25:31.345Z,-4.90
2022-12-12T06:28:04.213Z,-5.00
2022-12-12T06:30:36.099Z,-4.90
2022-12-12T06:33:08.811Z,-4.90
2022-12-12T06:35:44.555Z,-5.30
2022-12-12T06:38:16.938Z,-5.30
2022-12-12T06:40:48.820Z,-5.00
2022-12-12T06:46:02.639Z,-5.00
2022-12-12T06:48:37.000Z,-4.90
2022-12-12T06:51:13.579Z,-4.90
2022-12-12T06:53:46.828Z,-4.80
2022-12-12T06:56:25.154Z,-4.90
2022-12-12T06:59:01.040Z,-4.90
2022-12-12T07:01:34.428Z,-4.90
2022-12-12T07:04:07.339Z,-4.90
2022-12-12T07:06:39.639Z,-4.90
2022-12-12T07:11:47.612Z,-5.00
2022-12-12T07:14:20.886Z,-5.10
2022-12-12T07:16:52.854Z,-5.20
2022-12-12T07:19:26.818Z,-5.20
2022-12-12T07:22:05.701Z,-5.10
2022-12-12T07:24:41.026Z,-5.20
2022-12-12T07:27:19.972Z,-4.80
2022-12-12T07:30:15.390Z,-5.20
2022-12-12T07:32:48.111Z,-5.10
2022-12-12T07:35:20.054Z,-5.00
2022-12-12T07:37:53.008Z,-5.00
2022-12-12T07:40:24.982Z,-4.90
2022-12-12T07:48:02.361Z,-4.80
2022-12-12T07:50:35.186Z,-4.80
2022-12-12T07:53:08.054Z,-4.60
2022-12-12T07:58:13.742Z,-4.60
2022-12-12T08:00:46.565Z,-4.80
2022-12-12T08:03:18.489Z,-4.80
2022-12-12T08:09:06.141Z,-4.40
2022-12-12T08:11:46.901Z,-4.60
2022-12-12T08:14:19.139Z,-4.60
2022-12-12T08:16:52.634Z,-4.70
2022-12-12T08:19:24.931Z,-4.70
2022-12-12T08:21:57.750Z,-4.70
2022-12-12T08:27:03.227Z,-4.60
2022-12-12T08:29:38.831Z,-4.70
2022-12-12T08:35:03.179Z,-4.70
2022-12-12T08:37:36.134Z,-3.10
2022-12-12T08:40:09.957Z,-4.80
2022-12-12T08:42:42.650Z,-4.20
2022-12-12T08:45:16.508Z,-5.00
2022-12-12T08:52:54.515Z,-5.00
2022-12-12T08:55:27.415Z,-5.00
2022-12-12T09:03:06.195Z,-4.80
2022-12-12T09:05:44.607Z,-4.80
2022-12-12T09:10:51.248Z,-4.30
2022-12-12T09:13:23.243Z,-4.20
2022-12-12T09:15:56.171Z,-4.30
2022-12-12T09:18:28.481Z,-4.00
2022-12-12T09:21:02.285Z,-4.00
2022-12-12T09:23:34.873Z,-3.50
2022-12-12T09:26:09.974Z,-3.30
2022-12-12T09:31:15.582Z,-3.90
2022-12-12T09:33:47.589Z,-4.00
2022-12-12T09:38:54.190Z,-3.50
2022-12-12T09:41:27.833Z,-3.00
2022-12-12T09:44:08.254Z,-3.10
2022-12-12T09:47:03.125Z,-3.00
2022-12-12T09:49:54.392Z,-3.00
2022-12-12T09:52:33.832Z,-3.00
2022-12-12T09:55:42.190Z,-3.10
2022-12-12T09:58:50.197Z,-2.70
2022-12-12T10:01:53.301Z,-2.60
2022-12-12T10:04:50.810Z,-2.40
2022-12-12T10:07:47.190Z,-2.60
2022-12-12T10:10:45.006Z,-2.60
2022-12-12T10:13:24.249Z,-2.00
2022-12-12T10:16:16.038Z,-1.90
2022-12-12T10:18:52.451Z,-1.80
2022-12-12T10:21:30.561Z,-1.80
2022-12-12T10:24:10.178Z,-2.70
2022-12-12T10:26:44.455Z,-2.90
2022-12-12T10:29:22.553Z,-3.50
2022-12-12T10:32:13.498Z,-2.90
2022-12-12T10:35:00.758Z,-2.40
2022-12-12T10:37:45.359Z,-2.40
2022-12-12T10:41:02.179Z,-2.40
2022-12-12T10:43:50.085Z,-2.60
2022-12-12T10:46:44.359Z,-2.60
2022-12-12T10:49:20.870Z,-2.20
2022-12-12T10:51:56.158Z,-2.00
2022-12-12T10:54:29.362Z,-1.80
2022-12-12T10:57:20.262Z,-2.20
2022-12-12T10:59:56.797Z,-2.60
2022-12-12T11:02:54.314Z,-2.60
2022-12-12T11:05:36.145Z,-2.20
2022-12-12T11:08:25.525Z,-3.10
2022-12-12T11:11:19.464Z,-2.70
2022-12-12T11:14:03.419Z,-2.60
2022-12-12T11:16:44.681Z,-2.40
2022-12-12T11:19:22.741Z,-2.40
2022-12-12T11:21:56.583Z,-2.40
2022-12-12T11:24:33.220Z,-2.10
2022-12-12T11:27:07.867Z,-2.50
2022-12-12T11:29:47.517Z,-2.60
2022-12-12T11:32:30.109Z,-3.10
2022-12-12T11:35:07.522Z,-3.00
2022-12-12T11:37:49.742Z,-2.90
2022-12-12T11:40:26.128Z,-2.90
2022-12-12T11:43:17.077Z,-3.00
2022-12-12T11:46:16.340Z,-2.80
2022-12-12T11:48:54.433Z,-2.80
2022-12-12T11:51:45.301Z,-2.70
2022-12-12T11:54:34.402Z,-2.30
2022-12-12T11:57:16.230Z,-1.90
2022-12-12T12:03:07.956Z,-2.50
2022-12-12T12:08:35.805Z,-1.70
2022-12-12T12:11:24.084Z,-1.80
2022-12-12T12:14:33.389Z,-1.80
2022-12-12T12:17:22.202Z,-1.80
2022-12-12T12:20:09.515Z,-1.70
2022-12-12T12:22:59.266Z,-1.70
2022-12-12T12:25:36.189Z,-1.60
2022-12-12T12:28:29.924Z,-1.50
2022-12-12T12:31:36.095Z,-1.40
2022-12-12T12:34:42.229Z,-1.30
2022-12-12T12:37:37.203Z,-1.40
2022-12-12T12:40:54.604Z,-1.40
2022-12-12T12:43:48.302Z,-1.40
2022-12-12T12:46:48.475Z,-1.00
2022-12-12T12:49:29.648Z,-1.00
2022-12-12T12:52:22.121Z,-1.40
2022-12-12T12:54:57.769Z,-1.30
2022-12-12T12:57:40.941Z,-1.40
2022-12-12T13:00:27.160Z,-1.60
2022-12-12T13:03:25.092Z,-1.80
2022-12-12T13:06:05.627Z,-1.80
2022-12-12T13:08:58.151Z,-1.80
2022-12-12T13:11:39.200Z,-1.70
2022-12-12T13:14:33.994Z,-1.50
2022-12-12T13:17:15.397Z,-1.50
2022-12-12T13:19:53.451Z,-1.50
2022-12-12T13:22:50.909Z,-1.30
2022-12-12T13:25:39.853Z,-1.40
2022-12-12T13:28:25.286Z,-1.50
2022-12-12T13:31:23.066Z,-1.80
2022-12-12T13:34:08.140Z,-1.70
2022-12-12T13:36:45.772Z,-1.70
2022-12-12T13:39:37.832Z,-1.70
2022-12-12T13:42:12.789Z,-1.80
2022-12-12T13:44:48.889Z,-1.80
2022-12-12T13:47:24.822Z,-1.90
2022-12-12T13:50:09.579Z,-2.00
2022-12-12T13:52:43.173Z,0.50
2022-12-12T13:57:59.973Z,-1.40
2022-12-12T14:00:37.421Z,-1.60
2022-12-12T14:03:13.280Z,-1.70
2022-12-12T14:05:51.418Z,-1.80
2022-12-12T14:08:32.243Z,-1.90
2022-12-12T14:11:11.114Z,-1.80
2022-12-12T14:13:47.756Z,-1.90
2022-12-12T14:16:27.069Z,-1.90
2022-12-12T14:19:06.948Z,-1.90
2022-12-12T14:21:46.826Z,-1.90
2022-12-12T14:24:35.233Z,-2.00
2022-12-12T14:27:11.349Z,-1.90
2022-12-12T14:29:46.092Z,-1.90
2022-12-12T14:32:44.520Z,-1.90
2022-12-12T14:35:27.670Z,-1.90
2022-12-12T14:38:27.721Z,-2.00
2022-12-12T14:41:13.043Z,-2.10
2022-12-12T14:44:36.928Z,-2.60
2022-12-12T14:46:49.654Z,-2.40
2022-12-12T14:49:22.222Z,-2.30
2022-12-12T14:51:57.150Z,-2.30
2022-12-12T14:54:34.135Z,-2.30
2022-12-12T14:57:07.738Z,-2.30
2022-12-12T14:59:42.927Z,-2.30
2022-12-12T15:02:32.957Z,-2.30
2022-12-12T15:05:08.311Z,-2.40
2022-12-12T15:07:40.391Z,-2.30
2022-12-12T15:10:28.631Z,-2.40
2022-12-12T15:13:02.186Z,-2.40
2022-12-12T15:15:35.284Z,-2.20
2022-12-12T15:18:09.472Z,-2.20
2022-12-12T15:20:42.164Z,-2.50
2022-12-12T15:23:19.462Z,-2.30
2022-12-12T15:25:56.243Z,-2.40
2022-12-12T15:28:28.630Z,-2.80
2022-12-12T15:31:01.768Z,-2.80
2022-12-12T15:33:38.839Z,-2.50
2022-12-12T15:36:29.434Z,-3.00
2022-12-12T15:39:13.298Z,-3.30
2022-12-12T15:41:46.692Z,-2.90
2022-12-12T15:44:20.819Z,-2.80
2022-12-12T15:46:54.147Z,-2.60
2022-12-12T15:49:42.108Z,-2.50
2022-12-12T15:52:29.748Z,-2.80
2022-12-12T15:55:05.399Z,-2.80
2022-12-12T15:57:49.854Z,-3.00
2022-12-12T16:00:37.546Z,-3.40
2022-12-12T16:03:09.711Z,-3.20
2022-12-12T16:05:43.177Z,-3.30
2022-12-12T16:08:45.369Z,-3.20
2022-12-12T16:11:42.457Z,-3.20
2022-12-12T16:14:25.298Z,-3.10
2022-12-12T16:17:41.043Z,-3.20
2022-12-12T16:20:14.999Z,-3.10
2022-12-12T16:22:49.626Z,-3.20
2022-12-12T16:25:30.526Z,-3.20
2022-12-12T16:28:10.354Z,-3.10
2022-12-12T16:30:45.956Z,-3.20
2022-12-12T16:33:30.366Z,-3.10
2022-12-12T16:36:09.214Z,-2.90
2022-12-12T16:38:42.668Z,-2.90
2022-12-12T16:41:18.215Z,-2.80
2022-12-12T16:46:26.152Z,-2.90
2022-12-12T16:49:04.687Z,-3.00
2022-12-12T16:51:41.561Z,-3.00
2022-12-12T16:54:18.183Z,-3.10
2022-12-12T16:56:52.591Z,-3.00
2022-12-12T16:59:25.445Z,-2.90
2022-12-12T17:01:57.538Z,-2.90
2022-12-12T17:07:07.979Z,-3.00
2022-12-12T17:09:41.699Z,-3.00
2022-12-12T17:12:15.450Z,-3.20
2022-12-12T17:17:40.973Z,-3.20
2022-12-12T17:20:14.486Z,-3.60
2022-12-12T17:22:46.822Z,-3.40
2022-12-12T17:25:21.926Z,-3.60
2022-12-12T17:30:27.090Z,-3.60
2022-12-12T17:33:17.283Z,-3.60
2022-12-12T17:36:06.568Z,-3.70
2022-12-12T17:38:38.507Z,-3.90
2022-12-12T17:41:11.388Z,-2.40
2022-12-12T17:43:43.396Z,-3.70
2022-12-12T17:46:18.615Z,-3.70
2022-12-12T17:48:51.442Z,-3.70
2022-12-12T17:53:59.243Z,-3.70
2022-12-12T17:56:32.137Z,-3.80
2022-12-12T17:59:10.191Z,-3.80
2022-12-12T18:01:42.098Z,-3.80
2022-12-12T18:04:14.902Z,-3.90
2022-12-12T18:06:47.448Z,-4.00
2022-12-12T18:09:20.538Z,-4.00
2022-12-12T18:11:52.425Z,-4.00
2022-12-12T18:14:25.104Z,-4.00
2022-12-12T18:16:57.562Z,-4.20
2022-12-12T18:19:30.130Z,-4.30
2022-12-12T18:22:03.629Z,-4.30
2022-12-12T18:24:36.079Z,-4.30
2022-12-12T18:27:08.168Z,-4.20
2022-12-12T18:29:42.030Z,-4.10
2022-12-12T18:32:14.032Z,-4.10
2022-12-12T18:35:19.380Z,-4.10
2022-12-12T18:37:52.751Z,-4.00
2022-12-12T18:40:28.267Z,-4.00
2022-12-12T18:43:04.590Z,-4.00
2022-12-12T18:45:38.422Z,-4.10
2022-12-12T18:48:10.564Z,-4.00
2022-12-12T18:50:43.421Z,-4.10
2022-12-12T18:53:17.248Z,-4.10
2022-12-12T18:55:52.217Z,-4.20
2022-12-12T18:58:30.474Z,-4.20
2022-12-12T19:01:10.294Z,-4.20
2022-12-12T19:03:49.864Z,-4.20
2022-12-12T19:06:36.401Z,-4.20
2022-12-12T19:09:17.739Z,-4.20
2022-12-12T19:11:50.467Z,-4.30
2022-12-12T19:14:23.352Z,-4.30
2022-12-12T19:17:15.032Z,-4.30
2022-12-12T19:19:51.819Z,-4.30
2022-12-12T19:22:44.967Z,-4.90
2022-12-12T19:25:25.065Z,-4.20
2022-12-12T19:28:01.377Z,-3.50
2022-12-12T19:33:34.998Z,-4.40
2022-12-12T19:36:24.522Z,-4.40
2022-12-12T19:39:00.236Z,-4.20
2022-12-12T19:44:08.728Z,2.00
2022-12-12T19:46:44.065Z,-2.20
2022-12-12T19:49:17.474Z,-3.00
2022-12-12T19:51:49.394Z,-3.30
2022-12-12T19:54:22.493Z,-3.80
2022-12-12T19:56:54.785Z,-3.80
2022-12-12T19:59:30.304Z,-4.10
2022-12-12T20:02:02.811Z,-4.10
2022-12-12T20:04:35.656Z,-3.90
2022-12-12T20:07:07.772Z,-4.10
2022-12-12T20:12:20.230Z,-4.10
2022-12-12T20:14:54.478Z,-4.00
2022-12-12T20:17:29.281Z,-3.90
2022-12-12T20:20:03.017Z,-3.90
2022-12-12T20:22:35.778Z,-3.80
2022-12-12T20:30:37.612Z,-4.00
2022-12-12T20:33:12.444Z,-3.90
2022-12-12T20:38:28.877Z,-3.90
2022-12-12T20:41:04.591Z,-2.20
2022-12-12T20:43:42.213Z,-3.90
2022-12-12T20:46:19.583Z,-2.40
2022-12-12T20:48:53.577Z,-3.80
2022-12-12T20:51:54.895Z,-3.80
2022-12-12T20:55:43.426Z,-3.80
2022-12-12T20:58:17.544Z,-3.90
2022-12-12T21:00:51.297Z,-4.00
2022-12-12T21:03:26.454Z,-4.00
2022-12-12T21:08:32.954Z,-3.80
2022-12-12T21:11:06.453Z,-3.70
2022-12-12T21:16:20.025Z,-3.50
2022-12-12T21:18:56.374Z,-2.50
2022-12-12T21:21:29.373Z,-3.50
2022-12-12T21:24:02.329Z,-3.50
2022-12-12T21:26:35.336Z,-3.80
2022-12-12T21:29:12.274Z,-3.60
2022-12-12T21:31:50.956Z,-3.50
2022-12-12T21:34:24.596Z,-3.60
2022-12-12T21:36:57.504Z,-3.70
2022-12-12T21:39:29.868Z,-3.60
2022-12-12T21:42:02.612Z,-3.60
2022-12-12T21:44:35.262Z,-3.60
2022-12-12T21:47:08.018Z,-3.70
2022-12-12T21:49:40.004Z,-3.70
2022-12-12T21:52:14.324Z,-3.70
2022-12-12T21:54:46.235Z,-3.70
2022-12-12T21:57:24.675Z,-3.90
2022-12-12T21:59:56.988Z,-3.80
2022-12-12T22:02:29.790Z,-3.90
2022-12-12T22:05:01.883Z,-3.90
2022-12-12T22:07:58.867Z,-4.00
2022-12-12T22:10:31.222Z,-4.30
2022-12-12T22:13:03.129Z,-4.40
2022-12-12T22:15:35.864Z,-4.60
2022-12-12T22:18:07.784Z,-4.70
2022-12-12T22:20:40.561Z,-4.70
2022-12-12T22:25:45.646Z,-4.40
2022-12-12T22:28:18.057Z,-4.30
2022-12-12T22:30:50.777Z,-4.10
2022-12-12T22:33:22.830Z,-4.30
2022-12-12T22:35:59.900Z,-4.40
2022-12-12T22:38:37.860Z,-4.20
2022-12-12T22:41:10.702Z,-4.20
2022-12-12T22:43:43.632Z,-4.20
2022-12-12T22:46:16.635Z,-4.20
2022-12-12T22:48:48.866Z,-4.20
2022-12-12T22:51:26.350Z,-4.20
2022-12-12T22:54:05.614Z,-4.20
2022-12-12T22:56:39.513Z,-4.20
2022-12-12T22:59:14.291Z,-4.60
2022-12-12T23:01:46.216Z,-4.90
2022-12-12T23:04:19.088Z,-4.80
2022-12-12T23:06:51.475Z,-4.80
2022-12-12T23:09:26.459Z,-5.00
2022-12-12T23:11:58.620Z,-5.00
2022-12-12T23:14:31.736Z,-5.00
2022-12-12T23:19:59.703Z,-4.90
2022-12-12T23:22:31.641Z,-5.10
2022-12-12T23:25:05.312Z,-5.30
2022-12-12T23:27:37.201Z,-5.30
2022-12-12T23:30:11.311Z,-5.30
2022-12-12T23:32:43.214Z,-5.30
2022-12-12T23:35:16.837Z,-5.40
2022-12-12T23:37:48.832Z,-5.50
2022-12-12T23:40:21.617Z,-5.50
2022-12-12T23:42:53.509Z,-5.60
2022-12-12T23:45:26.301Z,-5.60
2022-12-12T23:47:58.228Z,-5.60
2022-12-12T23:50:30.998Z,-5.80
2022-12-12T23:53:09.007Z,-5.60
2022-12-12T23:55:43.551Z,-5.60
2022-12-12T23:58:15.959Z,-5.80
